sensor_id;sensor_type;location;lat;lon;timestamp;temperature;humidity
5280;DHT22;2663;53.588;10.010;2023-05-24T00:02:07;11.00;99.90
5280;DHT22;2663;53.588;10.010;2023-05-24T00:04:33;11.10;99.90
5280;DHT22;2663;53.588;10.010;2023-05-24T00:07:00;11.10;99.90
5280;DHT22;2663;53.588;10.010;2023-05-24T00:09:30;11.00;99.90
5280;DHT22;2663;53.588;10.010;2023-05-24T00:11:57;11.00;99.90
5280;DHT22;2663;53.588;10.010;2023-05-24T00:14:24;11.00;99.90
5280;DHT22;2663;53.588;10.010;2023-05-24T00:16:51;11.00;99.90
5280;DHT22;2663;53.588;10.010;2023-05-24T00:19:18;11.10;99.90
5280;DHT22;2663;53.588;10.010;2023-05-24T00:21:49;11.10;99.90
5280;DHT22;2663;53.588;10.010;2023-05-24T00:24:16;11.10;99.90
5280;DHT22;2663;53.588;10.010;2023-05-24T00:26:43;11.20;99.90
5280;DHT22;2663;53.588;10.010;2023-05-24T00:29:10;11.20;99.90
5280;DHT22;2663;53.588;10.010;2023-05-24T00:31:37;11.20;99.90
5280;DHT22;2663;53.588;10.010;2023-05-24T00:34:04;11.20;99.90
5280;DHT22;2663;53.588;10.010;2023-05-24T00:36:31;11.20;99.90
5280;DHT22;2663;53.588;10.010;2023-05-24T00:38:58;11.10;99.90
5280;DHT22;2663;53.588;10.010;2023-05-24T00:41:25;11.20;99.90
5280;DHT22;2663;53.588;10.010;2023-05-24T00:43:52;11.20;99.90
5280;DHT22;2663;53.588;10.010;2023-05-24T00:46:30;11.20;99.90
5280;DHT22;2663;53.588;10.010;2023-05-24T00:48:59;11.20;99.90
5280;DHT22;2663;53.588;10.010;2023-05-24T00:51:27;11.20;99.90
5280;DHT22;2663;53.588;10.010;2023-05-24T00:53:54;11.30;99.90
5280;DHT22;2663;53.588;10.010;2023-05-24T00:56:21;11.30;99.90
5280;DHT22;2663;53.588;10.010;2023-05-24T00:58:50;11.40;99.90
5280;DHT22;2663;53.588;10.010;2023-05-24T01:01:20;11.30;99.90
5280;DHT22;2663;53.588;10.010;2023-05-24T01:03:47;11.30;99.90
5280;DHT22;2663;53.588;10.010;2023-05-24T01:06:14;11.00;99.90
5280;DHT22;2663;53.588;10.010;2023-05-24T01:11:45;11.30;99.90
5280;DHT22;2663;53.588;10.010;2023-05-24T01:14:49;11.30;99.90
5280;DHT22;2663;53.588;10.010;2023-05-24T01:17:22;11.30;99.90
5280;DHT22;2663;53.588;10.010;2023-05-24T01:20:09;11.40;99.90
5280;DHT22;2663;53.588;10.010;2023-05-24T01:28:12;11.30;99.90
5280;DHT22;2663;53.588;10.010;2023-05-24T01:30:40;11.20;99.90
5280;DHT22;2663;53.588;10.010;2023-05-24T01:33:07;11.20;99.90
5280;DHT22;2663;53.588;10.010;2023-05-24T01:35:35;11.30;99.90
5280;DHT22;2663;53.588;10.010;2023-05-24T01:38:06;11.30;99.90
5280;DHT22;2663;53.588;10.010;2023-05-24T01:40:33;11.30;99.90
5280;DHT22;2663;53.588;10.010;2023-05-24T01:43:26;11.30;99.90
5280;DHT22;2663;53.588;10.010;2023-05-24T01:46:12;11.40;99.90
5280;DHT22;2663;53.588;10.010;2023-05-24T01:48:58;11.40;99.90
5280;DHT22;2663;53.588;10.010;2023-05-24T01:51:32;11.40;99.90
5280;DHT22;2663;53.588;10.010;2023-05-24T01:54:00;11.30;99.90
5280;DHT22;2663;53.588;10.010;2023-05-24T01:56:28;12.10;99.90
5280;DHT22;2663;53.588;10.010;2023-05-24T01:58:58;11.30;99.90
5280;DHT22;2663;53.588;10.010;2023-05-24T02:01:25;11.30;99.90
5280;DHT22;2663;53.588;10.010;2023-05-24T02:03:52;11.30;99.90
5280;DHT22;2663;53.588;10.010;2023-05-24T02:06:20;11.40;99.90
5280;DHT22;2663;53.588;10.010;2023-05-24T02:08:46;11.40;99.90
5280;DHT22;2663;53.588;10.010;2023-05-24T02:11:13;11.40;99.90
5280;DHT22;2663;53.588;10.010;2023-05-24T02:13:40;11.40;99.90
5280;DHT22;2663;53.588;10.010;2023-05-24T02:16:06;11.40;99.90
5280;DHT22;2663;53.588;10.010;2023-05-24T02:18:33;11.50;99.90
5280;DHT22;2663;53.588;10.010;2023-05-24T02:21:01;11.60;99.90
5280;DHT22;2663;53.588;10.010;2023-05-24T02:23:28;11.50;99.90
5280;DHT22;2663;53.588;10.010;2023-05-24T02:25:55;11.40;99.90
5280;DHT22;2663;53.588;10.010;2023-05-24T02:28:22;11.40;99.90
5280;DHT22;2663;53.588;10.010;2023-05-24T02:30:48;11.50;99.90
5280;DHT22;2663;53.588;10.010;2023-05-24T02:33:15;11.60;99.90
5280;DHT22;2663;53.588;10.010;2023-05-24T02:35:42;11.60;99.90
5280;DHT22;2663;53.588;10.010;2023-05-24T02:38:09;11.60;99.90
5280;DHT22;2663;53.588;10.010;2023-05-24T02:40:35;11.60;99.90
5280;DHT22;2663;53.588;10.010;2023-05-24T02:43:02;11.50;99.90
5280;DHT22;2663;53.588;10.010;2023-05-24T02:45:29;11.50;99.90
5280;DHT22;2663;53.588;10.010;2023-05-24T02:47:55;11.40;99.90
5280;DHT22;2663;53.588;10.010;2023-05-24T02:50:22;11.40;99.90
5280;DHT22;2663;53.588;10.010;2023-05-24T02:52:49;11.50;99.90
5280;DHT22;2663;53.588;10.010;2023-05-24T02:55:17;11.50;99.90
5280;DHT22;2663;53.588;10.010;2023-05-24T02:57:43;11.50;99.90
5280;DHT22;2663;53.588;10.010;2023-05-24T03:00:11;11.50;99.90
5280;DHT22;2663;53.588;10.010;2023-05-24T03:02:37;11.50;99.90
5280;DHT22;2663;53.588;10.010;2023-05-24T03:05:07;11.50;99.90
5280;DHT22;2663;53.588;10.010;2023-05-24T03:07:33;11.50;99.90
5280;DHT22;2663;53.588;10.010;2023-05-24T03:10:00;11.50;99.90
5280;DHT22;2663;53.588;10.010;2023-05-24T03:12:27;11.50;99.90
5280;DHT22;2663;53.588;10.010;2023-05-24T03:14:53;11.50;99.90
5280;DHT22;2663;53.588;10.010;2023-05-24T03:17:20;11.50;99.90
5280;DHT22;2663;53.588;10.010;2023-05-24T03:19:47;11.50;99.90
5280;DHT22;2663;53.588;10.010;2023-05-24T03:22:14;11.50;99.90
5280;DHT22;2663;53.588;10.010;2023-05-24T03:24:42;11.50;99.90
5280;DHT22;2663;53.588;10.010;2023-05-24T03:27:08;11.40;99.90
5280;DHT22;2663;53.588;10.010;2023-05-24T03:29:35;11.30;99.90
5280;DHT22;2663;53.588;10.010;2023-05-24T03:32:02;11.20;99.90
5280;DHT22;2663;53.588;10.010;2023-05-24T03:34:29;11.40;99.90
5280;DHT22;2663;53.588;10.010;2023-05-24T03:36:56;11.40;99.90
5280;DHT22;2663;53.588;10.010;2023-05-24T03:39:23;11.50;99.90
5280;DHT22;2663;53.588;10.010;2023-05-24T03:41:50;11.50;99.90
5280;DHT22;2663;53.588;10.010;2023-05-24T03:44:16;11.50;99.90
5280;DHT22;2663;53.588;10.010;2023-05-24T03:46:43;11.40;99.90
5280;DHT22;2663;53.588;10.010;2023-05-24T03:49:10;11.40;99.90
5280;DHT22;2663;53.588;10.010;2023-05-24T03:51:37;11.40;99.90
5280;DHT22;2663;53.588;10.010;2023-05-24T03:54:03;11.40;99.90
5280;DHT22;2663;53.588;10.010;2023-05-24T03:56:30;11.40;99.90
5280;DHT22;2663;53.588;10.010;2023-05-24T03:58:57;11.40;99.90
5280;DHT22;2663;53.588;10.010;2023-05-24T04:01:26;11.40;99.90
5280;DHT22;2663;53.588;10.010;2023-05-24T04:04:00;11.40;99.90
5280;DHT22;2663;53.588;10.010;2023-05-24T04:06:28;11.50;99.90
5280;DHT22;2663;53.588;10.010;2023-05-24T04:08:55;11.50;99.90
5280;DHT22;2663;53.588;10.010;2023-05-24T04:11:23;11.50;99.90
5280;DHT22;2663;53.588;10.010;2023-05-24T04:13:54;11.40;99.90
5280;DHT22;2663;53.588;10.010;2023-05-24T04:16:22;11.50;99.90
5280;DHT22;2663;53.588;10.010;2023-05-24T04:18:54;11.40;99.90
5280;DHT22;2663;53.588;10.010;2023-05-24T04:21:21;11.40;99.90
5280;DHT22;2663;53.588;10.010;2023-05-24T04:23:48;11.40;99.90
5280;DHT22;2663;53.588;10.010;2023-05-24T04:26:15;11.40;99.90
5280;DHT22;2663;53.588;10.010;2023-05-24T04:28:43;11.30;99.90
5280;DHT22;2663;53.588;10.010;2023-05-24T04:31:11;11.30;99.90
5280;DHT22;2663;53.588;10.010;2023-05-24T04:33:38;11.20;99.90
5280;DHT22;2663;53.588;10.010;2023-05-24T04:36:05;11.10;99.90
5280;DHT22;2663;53.588;10.010;2023-05-24T04:38:33;11.10;99.90
5280;DHT22;2663;53.588;10.010;2023-05-24T04:41:01;11.10;99.90
5280;DHT22;2663;53.588;10.010;2023-05-24T04:43:28;11.20;99.90
5280;DHT22;2663;53.588;10.010;2023-05-24T04:45:55;11.10;99.90
5280;DHT22;2663;53.588;10.010;2023-05-24T04:48:22;11.10;99.90
5280;DHT22;2663;53.588;10.010;2023-05-24T04:50:56;11.10;99.90
5280;DHT22;2663;53.588;10.010;2023-05-24T04:53:26;11.20;99.90
5280;DHT22;2663;53.588;10.010;2023-05-24T04:55:52;11.10;99.90
5280;DHT22;2663;53.588;10.010;2023-05-24T04:58:19;11.00;99.90
5280;DHT22;2663;53.588;10.010;2023-05-24T05:00:46;11.10;99.90
5280;DHT22;2663;53.588;10.010;2023-05-24T05:03:13;11.20;99.90
5280;DHT22;2663;53.588;10.010;2023-05-24T05:05:40;11.10;99.90
5280;DHT22;2663;53.588;10.010;2023-05-24T05:08:06;11.10;99.90
5280;DHT22;2663;53.588;10.010;2023-05-24T05:10:34;11.10;99.90
5280;DHT22;2663;53.588;10.010;2023-05-24T05:13:01;11.20;99.90
5280;DHT22;2663;53.588;10.010;2023-05-24T05:15:28;11.10;99.90
5280;DHT22;2663;53.588;10.010;2023-05-24T05:17:54;11.10;99.90
5280;DHT22;2663;53.588;10.010;2023-05-24T05:20:21;11.10;99.90
5280;DHT22;2663;53.588;10.010;2023-05-24T05:22:48;11.10;99.90
5280;DHT22;2663;53.588;10.010;2023-05-24T05:25:15;11.10;99.90
5280;DHT22;2663;53.588;10.010;2023-05-24T05:27:42;11.10;99.90
5280;DHT22;2663;53.588;10.010;2023-05-24T05:30:09;11.20;99.90
5280;DHT22;2663;53.588;10.010;2023-05-24T05:32:36;11.10;99.90
5280;DHT22;2663;53.588;10.010;2023-05-24T05:35:04;11.20;99.90
5280;DHT22;2663;53.588;10.010;2023-05-24T05:37:31;11.20;99.90
5280;DHT22;2663;53.588;10.010;2023-05-24T05:39:57;11.20;99.90
5280;DHT22;2663;53.588;10.010;2023-05-24T05:42:24;11.30;99.90
5280;DHT22;2663;53.588;10.010;2023-05-24T05:44:51;11.40;99.90
5280;DHT22;2663;53.588;10.010;2023-05-24T05:47:18;11.30;99.90
5280;DHT22;2663;53.588;10.010;2023-05-24T05:49:45;11.30;99.90
5280;DHT22;2663;53.588;10.010;2023-05-24T05:52:11;11.30;99.90
5280;DHT22;2663;53.588;10.010;2023-05-24T05:54:38;11.40;99.90
5280;DHT22;2663;53.588;10.010;2023-05-24T05:57:05;11.50;99.90
5280;DHT22;2663;53.588;10.010;2023-05-24T05:59:33;11.40;99.90
5280;DHT22;2663;53.588;10.010;2023-05-24T06:02:02;11.40;99.90
5280;DHT22;2663;53.588;10.010;2023-05-24T06:04:29;11.40;99.90
5280;DHT22;2663;53.588;10.010;2023-05-24T06:06:56;11.40;99.90
5280;DHT22;2663;53.588;10.010;2023-05-24T06:09:23;11.40;99.90
5280;DHT22;2663;53.588;10.010;2023-05-24T06:11:50;11.40;99.90
5280;DHT22;2663;53.588;10.010;2023-05-24T06:14:16;11.50;99.90
5280;DHT22;2663;53.588;10.010;2023-05-24T06:16:45;11.50;99.90
5280;DHT22;2663;53.588;10.010;2023-05-24T06:19:13;11.60;99.90
5280;DHT22;2663;53.588;10.010;2023-05-24T06:21:40;11.60;99.90
5280;DHT22;2663;53.588;10.010;2023-05-24T06:24:13;11.60;99.90
5280;DHT22;2663;53.588;10.010;2023-05-24T06:26:40;11.70;99.90
5280;DHT22;2663;53.588;10.010;2023-05-24T06:29:07;11.80;99.90
5280;DHT22;2663;53.588;10.010;2023-05-24T06:31:35;11.80;99.90
5280;DHT22;2663;53.588;10.010;2023-05-24T06:34:02;11.80;99.90
5280;DHT22;2663;53.588;10.010;2023-05-24T06:36:30;11.90;99.90
5280;DHT22;2663;53.588;10.010;2023-05-24T06:39:08;11.80;99.90
5280;DHT22;2663;53.588;10.010;2023-05-24T06:41:36;11.90;99.90
5280;DHT22;2663;53.588;10.010;2023-05-24T06:44:04;11.90;99.90
5280;DHT22;2663;53.588;10.010;2023-05-24T06:46:31;12.00;99.90
5280;DHT22;2663;53.588;10.010;2023-05-24T06:48:58;12.00;99.90
5280;DHT22;2663;53.588;10.010;2023-05-24T06:51:25;12.00;99.90
5280;DHT22;2663;53.588;10.010;2023-05-24T06:53:52;12.20;99.90
5280;DHT22;2663;53.588;10.010;2023-05-24T06:56:19;12.20;99.90
5280;DHT22;2663;53.588;10.010;2023-05-24T06:58:45;12.30;99.90
5280;DHT22;2663;53.588;10.010;2023-05-24T07:01:13;12.50;99.90
5280;DHT22;2663;53.588;10.010;2023-05-24T07:03:40;12.60;99.90
5280;DHT22;2663;53.588;10.010;2023-05-24T07:06:06;12.70;99.90
5280;DHT22;2663;53.588;10.010;2023-05-24T07:08:35;12.80;99.90
5280;DHT22;2663;53.588;10.010;2023-05-24T07:11:02;12.80;99.90
5280;DHT22;2663;53.588;10.010;2023-05-24T07:13:29;12.60;99.90
5280;DHT22;2663;53.588;10.010;2023-05-24T07:15:55;12.50;99.90
5280;DHT22;2663;53.588;10.010;2023-05-24T07:18:22;12.50;99.90
5280;DHT22;2663;53.588;10.010;2023-05-24T07:20:49;12.60;99.90
5280;DHT22;2663;53.588;10.010;2023-05-24T07:23:16;12.60;99.90
5280;DHT22;2663;53.588;10.010;2023-05-24T07:25:42;12.70;99.90
5280;DHT22;2663;53.588;10.010;2023-05-24T07:28:09;12.80;99.90
5280;DHT22;2663;53.588;10.010;2023-05-24T07:30:36;12.70;99.90
5280;DHT22;2663;53.588;10.010;2023-05-24T07:33:04;12.60;99.90
5280;DHT22;2663;53.588;10.010;2023-05-24T07:35:31;12.50;99.90
5280;DHT22;2663;53.588;10.010;2023-05-24T07:37:58;12.50;99.90
5280;DHT22;2663;53.588;10.010;2023-05-24T07:40:25;12.50;99.90
5280;DHT22;2663;53.588;10.010;2023-05-24T07:42:52;12.70;99.90
5280;DHT22;2663;53.588;10.010;2023-05-24T07:45:18;12.40;99.90
5280;DHT22;2663;53.588;10.010;2023-05-24T07:47:45;12.50;99.90
5280;DHT22;2663;53.588;10.010;2023-05-24T07:50:12;12.40;99.90
5280;DHT22;2663;53.588;10.010;2023-05-24T07:52:39;12.60;99.90
5280;DHT22;2663;53.588;10.010;2023-05-24T07:55:06;12.70;99.90
5280;DHT22;2663;53.588;10.010;2023-05-24T07:57:33;12.80;99.90
5280;DHT22;2663;53.588;10.010;2023-05-24T07:59:59;12.90;99.90
5280;DHT22;2663;53.588;10.010;2023-05-24T08:02:32;13.10;99.90
5280;DHT22;2663;53.588;10.010;2023-05-24T08:05:00;13.30;99.90
5280;DHT22;2663;53.588;10.010;2023-05-24T08:07:27;13.10;99.90
5280;DHT22;2663;53.588;10.010;2023-05-24T08:09:54;13.10;99.90
5280;DHT22;2663;53.588;10.010;2023-05-24T08:12:21;13.30;99.90
5280;DHT22;2663;53.588;10.010;2023-05-24T08:14:47;13.30;99.90
5280;DHT22;2663;53.588;10.010;2023-05-24T08:17:14;13.30;99.90
5280;DHT22;2663;53.588;10.010;2023-05-24T08:19:41;13.30;99.90
5280;DHT22;2663;53.588;10.010;2023-05-24T08:22:07;13.40;99.90
5280;DHT22;2663;53.588;10.010;2023-05-24T08:24:34;13.50;99.90
5280;DHT22;2663;53.588;10.010;2023-05-24T08:27:01;13.50;99.90
5280;DHT22;2663;53.588;10.010;2023-05-24T08:29:29;13.60;99.90
5280;DHT22;2663;53.588;10.010;2023-05-24T08:31:57;13.60;99.90
5280;DHT22;2663;53.588;10.010;2023-05-24T08:34:24;13.70;99.90
5280;DHT22;2663;53.588;10.010;2023-05-24T08:36:50;13.80;99.90
5280;DHT22;2663;53.588;10.010;2023-05-24T08:39:17;14.00;99.90
5280;DHT22;2663;53.588;10.010;2023-05-24T08:41:45;14.00;99.90
5280;DHT22;2663;53.588;10.010;2023-05-24T08:44:40;14.10;99.90
5280;DHT22;2663;53.588;10.010;2023-05-24T08:47:09;14.20;99.90
5280;DHT22;2663;53.588;10.010;2023-05-24T08:49:37;14.10;99.90
5280;DHT22;2663;53.588;10.010;2023-05-24T08:52:04;14.00;99.90
5280;DHT22;2663;53.588;10.010;2023-05-24T08:54:36;14.10;99.90
5280;DHT22;2663;53.588;10.010;2023-05-24T08:57:04;14.10;99.90
5280;DHT22;2663;53.588;10.010;2023-05-24T08:59:32;14.20;99.90
5280;DHT22;2663;53.588;10.010;2023-05-24T09:01:59;14.30;99.90
5280;DHT22;2663;53.588;10.010;2023-05-24T09:04:26;14.50;99.90
5280;DHT22;2663;53.588;10.010;2023-05-24T09:06:55;14.60;99.90
5280;DHT22;2663;53.588;10.010;2023-05-24T09:09:26;14.80;99.90
5280;DHT22;2663;53.588;10.010;2023-05-24T09:11:56;15.00;99.90
5280;DHT22;2663;53.588;10.010;2023-05-24T09:14:24;15.20;99.90
5280;DHT22;2663;53.588;10.010;2023-05-24T09:16:51;15.20;99.90
5280;DHT22;2663;53.588;10.010;2023-05-24T09:19:18;15.40;99.90
5280;DHT22;2663;53.588;10.010;2023-05-24T09:21:46;15.50;99.90
5280;DHT22;2663;53.588;10.010;2023-05-24T09:24:15;15.40;99.90
5280;DHT22;2663;53.588;10.010;2023-05-24T09:26:42;15.60;99.90
5280;DHT22;2663;53.588;10.010;2023-05-24T09:29:08;15.50;99.90
5280;DHT22;2663;53.588;10.010;2023-05-24T09:31:39;15.40;99.90
5280;DHT22;2663;53.588;10.010;2023-05-24T09:34:09;15.40;99.90
5280;DHT22;2663;53.588;10.010;2023-05-24T09:36:39;15.50;99.90
5280;DHT22;2663;53.588;10.010;2023-05-24T09:39:09;15.50;99.90
5280;DHT22;2663;53.588;10.010;2023-05-24T09:41:36;15.50;99.90
5280;DHT22;2663;53.588;10.010;2023-05-24T09:44:04;15.50;99.90
5280;DHT22;2663;53.588;10.010;2023-05-24T09:46:37;15.60;99.90
5280;DHT22;2663;53.588;10.010;2023-05-24T09:49:04;15.50;99.90
5280;DHT22;2663;53.588;10.010;2023-05-24T09:51:36;15.50;99.90
5280;DHT22;2663;53.588;10.010;2023-05-24T09:54:04;15.50;99.90
5280;DHT22;2663;53.588;10.010;2023-05-24T09:56:34;15.60;99.90
5280;DHT22;2663;53.588;10.010;2023-05-24T09:59:05;15.70;99.90
5280;DHT22;2663;53.588;10.010;2023-05-24T10:01:33;15.70;99.90
5280;DHT22;2663;53.588;10.010;2023-05-24T10:04:01;15.70;99.90
5280;DHT22;2663;53.588;10.010;2023-05-24T10:06:33;15.60;99.90
5280;DHT22;2663;53.588;10.010;2023-05-24T10:09:03;15.50;99.90
5280;DHT22;2663;53.588;10.010;2023-05-24T10:11:37;15.40;99.90
5280;DHT22;2663;53.588;10.010;2023-05-24T10:14:05;15.60;99.90
5280;DHT22;2663;53.588;10.010;2023-05-24T10:16:34;15.60;99.90
5280;DHT22;2663;53.588;10.010;2023-05-24T10:19:04;15.80;99.90
5280;DHT22;2663;53.588;10.010;2023-05-24T10:21:31;15.70;99.90
5280;DHT22;2663;53.588;10.010;2023-05-24T10:24:02;15.70;99.90
5280;DHT22;2663;53.588;10.010;2023-05-24T10:26:36;15.70;99.90
5280;DHT22;2663;53.588;10.010;2023-05-24T10:29:08;15.90;99.90
5280;DHT22;2663;53.588;10.010;2023-05-24T10:31:38;16.00;99.90
5280;DHT22;2663;53.588;10.010;2023-05-24T10:34:06;16.20;99.90
5280;DHT22;2663;53.588;10.010;2023-05-24T10:36:35;16.30;99.90
5280;DHT22;2663;53.588;10.010;2023-05-24T10:39:02;16.00;99.90
5280;DHT22;2663;53.588;10.010;2023-05-24T10:41:38;16.00;99.90
5280;DHT22;2663;53.588;10.010;2023-05-24T10:44:10;16.00;99.90
5280;DHT22;2663;53.588;10.010;2023-05-24T10:47:12;15.90;99.90
5280;DHT22;2663;53.588;10.010;2023-05-24T10:49:50;15.80;99.90
5280;DHT22;2663;53.588;10.010;2023-05-24T10:52:18;15.70;99.90
5280;DHT22;2663;53.588;10.010;2023-05-24T10:55:06;15.90;99.90
5280;DHT22;2663;53.588;10.010;2023-05-24T10:57:34;15.90;99.90
5280;DHT22;2663;53.588;10.010;2023-05-24T11:03:01;15.70;99.90
5280;DHT22;2663;53.588;10.010;2023-05-24T11:05:48;15.70;99.90
5280;DHT22;2663;53.588;10.010;2023-05-24T11:08:33;15.80;99.90
5280;DHT22;2663;53.588;10.010;2023-05-24T11:11:08;16.00;99.90
5280;DHT22;2663;53.588;10.010;2023-05-24T11:13:39;16.10;99.90
5280;DHT22;2663;53.588;10.010;2023-05-24T11:16:06;16.20;99.90
5280;DHT22;2663;53.588;10.010;2023-05-24T11:18:33;16.20;99.90
5280;DHT22;2663;53.588;10.010;2023-05-24T11:21:05;16.30;99.90
5280;DHT22;2663;53.588;10.010;2023-05-24T11:23:32;16.30;99.90
5280;DHT22;2663;53.588;10.010;2023-05-24T11:26:02;16.40;99.90
5280;DHT22;2663;53.588;10.010;2023-05-24T11:28:29;16.50;99.90
5280;DHT22;2663;53.588;10.010;2023-05-24T11:31:07;16.60;99.90
5280;DHT22;2663;53.588;10.010;2023-05-24T11:33:33;16.70;99.90
5280;DHT22;2663;53.588;10.010;2023-05-24T11:36:00;16.70;99.90
5280;DHT22;2663;53.588;10.010;2023-05-24T11:38:28;16.50;99.90
5280;DHT22;2663;53.588;10.010;2023-05-24T11:40:57;16.60;99.90
5280;DHT22;2663;53.588;10.010;2023-05-24T11:43:24;16.70;99.90
5280;DHT22;2663;53.588;10.010;2023-05-24T11:45:51;16.40;99.90
5280;DHT22;2663;53.588;10.010;2023-05-24T11:48:18;16.40;99.90
5280;DHT22;2663;53.588;10.010;2023-05-24T11:50:46;16.40;99.90
5280;DHT22;2663;53.588;10.010;2023-05-24T11:53:18;16.30;99.90
5280;DHT22;2663;53.588;10.010;2023-05-24T11:55:46;16.30;99.90
5280;DHT22;2663;53.588;10.010;2023-05-24T11:58:25;16.40;99.90
5280;DHT22;2663;53.588;10.010;2023-05-24T12:00:54;16.60;99.90
5280;DHT22;2663;53.588;10.010;2023-05-24T12:03:21;16.70;99.90
5280;DHT22;2663;53.588;10.010;2023-05-24T12:05:48;16.70;99.90
5280;DHT22;2663;53.588;10.010;2023-05-24T12:08:15;16.80;99.90
5280;DHT22;2663;53.588;10.010;2023-05-24T12:10:42;16.70;99.90
5280;DHT22;2663;53.588;10.010;2023-05-24T12:13:20;16.80;99.90
5280;DHT22;2663;53.588;10.010;2023-05-24T12:15:52;16.90;99.90
5280;DHT22;2663;53.588;10.010;2023-05-24T12:18:24;16.90;99.90
5280;DHT22;2663;53.588;10.010;2023-05-24T12:20:54;16.70;99.90
5280;DHT22;2663;53.588;10.010;2023-05-24T12:23:25;16.80;99.90
5280;DHT22;2663;53.588;10.010;2023-05-24T12:25:58;16.80;99.90
5280;DHT22;2663;53.588;10.010;2023-05-24T12:28:34;16.80;99.90
5280;DHT22;2663;53.588;10.010;2023-05-24T12:31:03;16.60;99.90
5280;DHT22;2663;53.588;10.010;2023-05-24T12:33:30;16.40;99.90
5280;DHT22;2663;53.588;10.010;2023-05-24T12:35:57;16.30;99.90
5280;DHT22;2663;53.588;10.010;2023-05-24T12:38:24;16.30;99.90
5280;DHT22;2663;53.588;10.010;2023-05-24T12:40:52;16.40;99.90
5280;DHT22;2663;53.588;10.010;2023-05-24T12:43:38;16.40;99.90
5280;DHT22;2663;53.588;10.010;2023-05-24T12:46:06;16.30;99.90
5280;DHT22;2663;53.588;10.010;2023-05-24T12:48:33;16.40;99.90
5280;DHT22;2663;53.588;10.010;2023-05-24T12:51:00;16.30;99.90
5280;DHT22;2663;53.588;10.010;2023-05-24T12:53:27;16.30;99.90
5280;DHT22;2663;53.588;10.010;2023-05-24T12:55:54;16.40;99.90
5280;DHT22;2663;53.588;10.010;2023-05-24T12:58:21;16.50;99.90
5280;DHT22;2663;53.588;10.010;2023-05-24T13:00:48;16.70;99.90
5280;DHT22;2663;53.588;10.010;2023-05-24T13:03:17;16.70;99.90
5280;DHT22;2663;53.588;10.010;2023-05-24T13:05:44;16.60;99.90
5280;DHT22;2663;53.588;10.010;2023-05-24T13:08:11;16.50;99.90
5280;DHT22;2663;53.588;10.010;2023-05-24T13:10:39;16.50;99.90
5280;DHT22;2663;53.588;10.010;2023-05-24T13:13:06;16.60;99.90
5280;DHT22;2663;53.588;10.010;2023-05-24T13:15:33;16.70;99.90
5280;DHT22;2663;53.588;10.010;2023-05-24T13:18:00;16.80;99.90
5280;DHT22;2663;53.588;10.010;2023-05-24T13:20:26;16.80;99.90
5280;DHT22;2663;53.588;10.010;2023-05-24T13:22:53;16.70;99.90
5280;DHT22;2663;53.588;10.010;2023-05-24T13:25:20;16.50;99.90
5280;DHT22;2663;53.588;10.010;2023-05-24T13:27:48;16.40;99.90
5280;DHT22;2663;53.588;10.010;2023-05-24T13:30:15;16.30;99.90
5280;DHT22;2663;53.588;10.010;2023-05-24T13:32:42;16.30;99.90
5280;DHT22;2663;53.588;10.010;2023-05-24T13:35:10;16.50;99.90
5280;DHT22;2663;53.588;10.010;2023-05-24T13:37:36;16.50;99.90
5280;DHT22;2663;53.588;10.010;2023-05-24T13:40:03;16.60;99.90
5280;DHT22;2663;53.588;10.010;2023-05-24T13:42:31;16.90;99.90
5280;DHT22;2663;53.588;10.010;2023-05-24T13:44:58;17.00;99.90
5280;DHT22;2663;53.588;10.010;2023-05-24T13:47:25;17.00;99.90
5280;DHT22;2663;53.588;10.010;2023-05-24T13:50:05;17.40;99.90
5280;DHT22;2663;53.588;10.010;2023-05-24T13:52:33;17.50;99.90
5280;DHT22;2663;53.588;10.010;2023-05-24T13:55:02;17.50;99.90
5280;DHT22;2663;53.588;10.010;2023-05-24T13:57:29;17.40;99.90
5280;DHT22;2663;53.588;10.010;2023-05-24T14:00:16;17.50;99.90
5280;DHT22;2663;53.588;10.010;2023-05-24T14:02:43;17.40;99.90
5280;DHT22;2663;53.588;10.010;2023-05-24T14:05:10;17.30;99.90
5280;DHT22;2663;53.588;10.010;2023-05-24T14:07:52;17.40;99.90
5280;DHT22;2663;53.588;10.010;2023-05-24T14:10:19;17.50;99.90
5280;DHT22;2663;53.588;10.010;2023-05-24T14:12:47;17.50;99.90
5280;DHT22;2663;53.588;10.010;2023-05-24T14:15:34;17.50;99.90
5280;DHT22;2663;53.588;10.010;2023-05-24T14:18:01;17.40;99.90
5280;DHT22;2663;53.588;10.010;2023-05-24T14:20:33;17.40;99.90
5280;DHT22;2663;53.588;10.010;2023-05-24T14:23:03;17.30;99.90
5280;DHT22;2663;53.588;10.010;2023-05-24T14:25:30;17.10;99.90
5280;DHT22;2663;53.588;10.010;2023-05-24T14:27:58;17.00;99.90
5280;DHT22;2663;53.588;10.010;2023-05-24T14:30:25;17.00;99.90
5280;DHT22;2663;53.588;10.010;2023-05-24T14:32:52;17.00;99.90
5280;DHT22;2663;53.588;10.010;2023-05-24T14:35:19;17.00;99.90
5280;DHT22;2663;53.588;10.010;2023-05-24T14:37:46;17.10;99.90
5280;DHT22;2663;53.588;10.010;2023-05-24T14:40:13;17.10;99.90
5280;DHT22;2663;53.588;10.010;2023-05-24T14:42:43;17.10;99.90
5280;DHT22;2663;53.588;10.010;2023-05-24T14:45:10;17.00;99.90
5280;DHT22;2663;53.588;10.010;2023-05-24T14:47:37;17.00;99.90
5280;DHT22;2663;53.588;10.010;2023-05-24T14:50:04;17.10;99.90
5280;DHT22;2663;53.588;10.010;2023-05-24T14:52:31;17.00;99.90
5280;DHT22;2663;53.588;10.010;2023-05-24T14:54:58;17.10;99.90
5280;DHT22;2663;53.588;10.010;2023-05-24T14:57:24;17.20;99.90
5280;DHT22;2663;53.588;10.010;2023-05-24T14:59:51;17.00;99.90
5280;DHT22;2663;53.588;10.010;2023-05-24T15:02:19;17.10;99.90
5280;DHT22;2663;53.588;10.010;2023-05-24T15:04:45;17.20;99.90
5280;DHT22;2663;53.588;10.010;2023-05-24T15:07:12;17.30;99.90
5280;DHT22;2663;53.588;10.010;2023-05-24T15:09:39;17.40;99.90
5280;DHT22;2663;53.588;10.010;2023-05-24T15:12:06;17.40;99.90
5280;DHT22;2663;53.588;10.010;2023-05-24T15:14:34;17.30;99.90
5280;DHT22;2663;53.588;10.010;2023-05-24T15:17:00;17.10;99.90
5280;DHT22;2663;53.588;10.010;2023-05-24T15:19:27;17.30;99.90
5280;DHT22;2663;53.588;10.010;2023-05-24T15:21:54;17.50;99.90
5280;DHT22;2663;53.588;10.010;2023-05-24T15:24:21;17.80;99.90
5280;DHT22;2663;53.588;10.010;2023-05-24T15:26:47;17.80;99.90
5280;DHT22;2663;53.588;10.010;2023-05-24T15:29:14;17.70;99.90
5280;DHT22;2663;53.588;10.010;2023-05-24T15:31:42;17.90;99.90
5280;DHT22;2663;53.588;10.010;2023-05-24T15:34:09;18.00;99.90
5280;DHT22;2663;53.588;10.010;2023-05-24T15:36:36;18.30;99.90
5280;DHT22;2663;53.588;10.010;2023-05-24T15:39:03;18.60;99.90
5280;DHT22;2663;53.588;10.010;2023-05-24T15:41:31;18.70;99.90
5280;DHT22;2663;53.588;10.010;2023-05-24T15:43:58;18.90;99.90
5280;DHT22;2663;53.588;10.010;2023-05-24T15:46:26;18.70;99.90
5280;DHT22;2663;53.588;10.010;2023-05-24T15:48:53;18.60;99.90
5280;DHT22;2663;53.588;10.010;2023-05-24T15:51:19;18.60;99.90
5280;DHT22;2663;53.588;10.010;2023-05-24T15:53:49;18.50;99.90
5280;DHT22;2663;53.588;10.010;2023-05-24T15:56:16;18.40;99.90
5280;DHT22;2663;53.588;10.010;2023-05-24T15:58:43;18.50;99.90
5280;DHT22;2663;53.588;10.010;2023-05-24T16:01:11;18.40;99.90
5280;DHT22;2663;53.588;10.010;2023-05-24T16:03:37;18.30;99.90
5280;DHT22;2663;53.588;10.010;2023-05-24T16:06:05;18.30;99.90